Shell River, Minnesota
Current Conditions -  °F | °C
As of 6:53 PM on Friday 24 Oct 2014 (Local Time) from KPKD Reporting Station
Clear Clear  
Wind Chill: 55°   Ceiling: Unl
Heat Index: 55°   Visibility: 10mi
Dew Point: 42°   Wind: 7mph
Humidity: 62%   Direction: 240°WSW
Pressure: 29.8"   Gusts: NA
Location:  46.7591°N, 94.9748°W
Report Text: KPKD 242353Z AUTO 24006KT 10SM CLR 13/06 A2980 RMK AO2 SLP097 T01280056 10222 20128 52009 TSNO
Loading
Personal Weather Stations






























Interactive Weather Map
Tropical Storm Tracking
New forecast layout! Learn more

10-Day Weather Forecast

Advertisements
Track Severe Weather on mobile